sensor_id;sensor_type;location;lat;lon;timestamp;pressure;altitude;pressure_sealevel;temperature;humidity
77207;BME280;66190;50.708;7.906;2023-04-03T00:01:53;97422.41;;;2.50;77.45
77207;BME280;66190;50.708;7.906;2023-04-03T00:04:18;97421.56;;;2.49;77.72
77207;BME280;66190;50.708;7.906;2023-04-03T00:06:43;97418.72;;;2.41;78.73
77207;BME280;66190;50.708;7.906;2023-04-03T00:09:09;97418.00;;;2.39;77.22
77207;BME280;66190;50.708;7.906;2023-04-03T00:11:34;97421.59;;;2.38;78.11
77207;BME280;66190;50.708;7.906;2023-04-03T00:13:59;97421.09;;;2.44;78.17
77207;BME280;66190;50.708;7.906;2023-04-03T00:16:25;97427.00;;;2.48;77.03
77207;BME280;66190;50.708;7.906;2023-04-03T00:18:50;97426.16;;;2.47;77.10
77207;BME280;66190;50.708;7.906;2023-04-03T00:21:16;97431.09;;;2.52;76.70
77207;BME280;66190;50.708;7.906;2023-04-03T00:23:41;97423.94;;;2.52;75.57
77207;BME280;66190;50.708;7.906;2023-04-03T00:26:06;97431.09;;;2.52;76.22
77207;BME280;66190;50.708;7.906;2023-04-03T00:28:32;97430.38;;;2.50;78.17
77207;BME280;66190;50.708;7.906;2023-04-03T00:30:58;97423.63;;;2.46;77.72
77207;BME280;66190;50.708;7.906;2023-04-03T00:33:24;97428.31;;;2.53;77.48
77207;BME280;66190;50.708;7.906;2023-04-03T00:35:50;97425.38;;;2.56;77.56
77207;BME280;66190;50.708;7.906;2023-04-03T00:38:16;97423.72;;;2.55;77.28
77207;BME280;66190;50.708;7.906;2023-04-03T00:40:44;97424.44;;;2.57;77.70
77207;BME280;66190;50.708;7.906;2023-04-03T00:43:14;97416.56;;;2.56;75.67
77207;BME280;66190;50.708;7.906;2023-04-03T00:45:43;97409.31;;;2.58;76.05
77207;BME280;66190;50.708;7.906;2023-04-03T00:48:13;97420.59;;;2.50;73.76
77207;BME280;66190;50.708;7.906;2023-04-03T00:50:40;97418.53;;;2.54;73.99
77207;BME280;66190;50.708;7.906;2023-04-03T00:53:11;97419.47;;;2.53;73.60
77207;BME280;66190;50.708;7.906;2023-04-03T00:55:38;97416.81;;;2.53;75.61
77207;BME280;66190;50.708;7.906;2023-04-03T00:58:04;97419.47;;;2.53;74.71
77207;BME280;66190;50.708;7.906;2023-04-03T01:00:32;97409.44;;;2.56;73.59
77207;BME280;66190;50.708;7.906;2023-04-03T01:02:58;97409.97;;;2.50;75.82
77207;BME280;66190;50.708;7.906;2023-04-03T01:05:24;97413.09;;;2.55;75.50
77207;BME280;66190;50.708;7.906;2023-04-03T01:07:50;97412.38;;;2.53;75.47
77207;BME280;66190;50.708;7.906;2023-04-03T01:10:18;97422.84;;;2.55;75.49
77207;BME280;66190;50.708;7.906;2023-04-03T01:12:46;97413.78;;;2.57;74.97
77207;BME280;66190;50.708;7.906;2023-04-03T01:15:16;97416.31;;;2.59;74.12
77207;BME280;66190;50.708;7.906;2023-04-03T01:17:48;97412.94;;;2.57;74.23
77207;BME280;66190;50.708;7.906;2023-04-03T01:23:12;97412.38;;;2.53;74.22
77207;BME280;66190;50.708;7.906;2023-04-03T01:25:47;97413.22;;;2.54;72.17
77207;BME280;66190;50.708;7.906;2023-04-03T01:28:19;97406.06;;;2.54;73.17
77207;BME280;66190;50.708;7.906;2023-04-03T01:31:12;97414.75;;;2.56;73.07
77207;BME280;66190;50.708;7.906;2023-04-03T01:33:35;97405.63;;;2.49;75.02
77207;BME280;66190;50.708;7.906;2023-04-03T01:36:01;97401.44;;;2.47;75.30
77207;BME280;66190;50.708;7.906;2023-04-03T01:38:26;97400.94;;;2.42;75.54
77207;BME280;66190;50.708;7.906;2023-04-03T01:40:52;97410.03;;;2.39;76.01
77207;BME280;66190;50.708;7.906;2023-04-03T01:43:17;97412.22;;;2.34;76.20
77207;BME280;66190;50.708;7.906;2023-04-03T01:45:43;97407.28;;;2.29;76.65
77207;BME280;66190;50.708;7.906;2023-04-03T01:48:08;97412.50;;;2.31;75.46
77207;BME280;66190;50.708;7.906;2023-04-03T01:50:33;97412.41;;;2.21;76.04
77207;BME280;66190;50.708;7.906;2023-04-03T01:52:59;97408.09;;;2.20;75.52
77207;BME280;66190;50.708;7.906;2023-04-03T01:55:24;97410.16;;;2.17;74.71
77207;BME280;66190;50.708;7.906;2023-04-03T01:57:50;97413.44;;;2.09;76.29
77207;BME280;66190;50.708;7.906;2023-04-03T02:00:15;97425.41;;;2.04;75.93
77207;BME280;66190;50.708;7.906;2023-04-03T02:02:41;97417.56;;;2.02;76.21
77207;BME280;66190;50.708;7.906;2023-04-03T02:05:07;97415.16;;;1.99;76.27
77207;BME280;66190;50.708;7.906;2023-04-03T02:07:32;97415.66;;;1.93;77.25
77207;BME280;66190;50.708;7.906;2023-04-03T02:09:58;97416.78;;;1.91;75.06
77207;BME280;66190;50.708;7.906;2023-04-03T02:12:23;97421.38;;;1.89;76.21
77207;BME280;66190;50.708;7.906;2023-04-03T02:14:48;97426.34;;;1.82;77.96
77207;BME280;66190;50.708;7.906;2023-04-03T02:17:14;97418.88;;;1.76;76.94
77207;BME280;66190;50.708;7.906;2023-04-03T02:19:40;97419.94;;;1.74;77.56
77207;BME280;66190;50.708;7.906;2023-04-03T02:22:05;97422.72;;;1.72;77.18
77207;BME280;66190;50.708;7.906;2023-04-03T02:24:31;97424.69;;;1.70;76.18
77207;BME280;66190;50.708;7.906;2023-04-03T02:26:57;97425.16;;;1.64;76.65
77207;BME280;66190;50.708;7.906;2023-04-03T02:29:23;97422.31;;;1.56;76.24
77207;BME280;66190;50.708;7.906;2023-04-03T02:31:49;97410.25;;;1.52;76.12
77207;BME280;66190;50.708;7.906;2023-04-03T02:34:15;97412.56;;;1.46;76.34
77207;BME280;66190;50.708;7.906;2023-04-03T02:36:40;97412.19;;;1.39;76.16
77207;BME280;66190;50.708;7.906;2023-04-03T02:39:05;97416.88;;;1.36;76.74
77207;BME280;66190;50.708;7.906;2023-04-03T02:41:31;97414.63;;;1.31;76.29
77207;BME280;66190;50.708;7.906;2023-04-03T02:44:02;97418.47;;;1.27;75.85
77207;BME280;66190;50.708;7.906;2023-04-03T02:46:27;97416.06;;;1.24;76.51
77207;BME280;66190;50.708;7.906;2023-04-03T02:48:53;97418.13;;;1.21;76.74
77207;BME280;66190;50.708;7.906;2023-04-03T02:51:18;97417.53;;;1.17;76.38
77207;BME280;66190;50.708;7.906;2023-04-03T02:53:44;97425.00;;;1.12;76.19
77207;BME280;66190;50.708;7.906;2023-04-03T02:56:09;97423.19;;;1.12;76.07
77207;BME280;66190;50.708;7.906;2023-04-03T02:58:34;97427.91;;;1.09;76.86
77207;BME280;66190;50.708;7.906;2023-04-03T03:01:00;97424.66;;;1.05;77.78
77207;BME280;66190;50.708;7.906;2023-04-03T03:03:26;97422.94;;;1.04;76.98
77207;BME280;66190;50.708;7.906;2023-04-03T03:06:01;97426.69;;;1.02;77.61
77207;BME280;66190;50.708;7.906;2023-04-03T03:08:27;97428.75;;;0.98;77.50
77207;BME280;66190;50.708;7.906;2023-04-03T03:10:52;97425.97;;;1.00;77.95
77207;BME280;66190;50.708;7.906;2023-04-03T03:13:18;97430.66;;;0.96;78.66
77207;BME280;66190;50.708;7.906;2023-04-03T03:15:43;97428.38;;;0.92;78.74
77207;BME280;66190;50.708;7.906;2023-04-03T03:18:08;97436.34;;;0.92;77.82
77207;BME280;66190;50.708;7.906;2023-04-03T03:20:34;97430.44;;;0.88;78.53
77207;BME280;66190;50.708;7.906;2023-04-03T03:22:59;97433.28;;;0.85;79.22
77207;BME280;66190;50.708;7.906;2023-04-03T03:25:24;97439.19;;;0.89;78.46
77207;BME280;66190;50.708;7.906;2023-04-03T03:27:50;97440.75;;;0.80;78.32
77207;BME280;66190;50.708;7.906;2023-04-03T03:30:15;97441.00;;;0.77;77.87
77207;BME280;66190;50.708;7.906;2023-04-03T03:32:40;97436.69;;;0.76;78.64
77207;BME280;66190;50.708;7.906;2023-04-03T03:35:06;97445.69;;;0.74;78.72
77207;BME280;66190;50.708;7.906;2023-04-03T03:37:31;97442.31;;;0.72;77.72
77207;BME280;66190;50.708;7.906;2023-04-03T03:39:57;97443.28;;;0.71;78.13
77207;BME280;66190;50.708;7.906;2023-04-03T03:42:22;97445.56;;;0.64;78.44
77207;BME280;66190;50.708;7.906;2023-04-03T03:44:48;97450.88;;;0.64;78.97
77207;BME280;66190;50.708;7.906;2023-04-03T03:47:13;97450.97;;;0.63;78.48
77207;BME280;66190;50.708;7.906;2023-04-03T03:49:38;97449.53;;;0.59;79.07
77207;BME280;66190;50.708;7.906;2023-04-03T03:52:04;97442.41;;;0.59;78.78
77207;BME280;66190;50.708;7.906;2023-04-03T03:54:29;97448.78;;;0.57;79.92
77207;BME280;66190;50.708;7.906;2023-04-03T03:56:55;97452.38;;;0.56;80.65
77207;BME280;66190;50.708;7.906;2023-04-03T03:59:20;97453.59;;;0.52;80.38
77207;BME280;66190;50.708;7.906;2023-04-03T04:01:46;97447.44;;;0.51;79.92
77207;BME280;66190;50.708;7.906;2023-04-03T04:04:11;97449.97;;;0.53;79.46
77207;BME280;66190;50.708;7.906;2023-04-03T04:06:36;97451.28;;;0.47;80.15
77207;BME280;66190;50.708;7.906;2023-04-03T04:09:02;97449.59;;;0.46;79.66
77207;BME280;66190;50.708;7.906;2023-04-03T04:11:27;97452.38;;;0.45;79.90
77207;BME280;66190;50.708;7.906;2023-04-03T04:13:53;97451.53;;;0.44;80.09
77207;BME280;66190;50.708;7.906;2023-04-03T04:16:18;97454.41;;;0.41;79.73
77207;BME280;66190;50.708;7.906;2023-04-03T04:18:43;97453.44;;;0.42;79.03
77207;BME280;66190;50.708;7.906;2023-04-03T04:21:09;97451.28;;;0.36;79.39
77207;BME280;66190;50.708;7.906;2023-04-03T04:23:34;97450.53;;;0.34;79.06
77207;BME280;66190;50.708;7.906;2023-04-03T04:26:00;97447.41;;;0.29;78.60
77207;BME280;66190;50.708;7.906;2023-04-03T04:28:25;97451.09;;;0.27;78.85
77207;BME280;66190;50.708;7.906;2023-04-03T04:30:51;97450.16;;;0.28;78.71
77207;BME280;66190;50.708;7.906;2023-04-03T04:33:16;97448.34;;;0.28;78.71
77207;BME280;66190;50.708;7.906;2023-04-03T04:35:42;97441.50;;;0.26;78.47
77207;BME280;66190;50.708;7.906;2023-04-03T04:38:08;97440.16;;;0.20;78.34
77207;BME280;66190;50.708;7.906;2023-04-03T04:40:34;97454.13;;;0.22;78.78
77207;BME280;66190;50.708;7.906;2023-04-03T04:42:59;97448.09;;;0.20;78.77
77207;BME280;66190;50.708;7.906;2023-04-03T04:45:25;97447.59;;;0.15;78.54
77207;BME280;66190;50.708;7.906;2023-04-03T04:47:50;97442.53;;;0.12;79.02
77207;BME280;66190;50.708;7.906;2023-04-03T04:50:18;97448.81;;;-0.02;79.31
77207;BME280;66190;50.708;7.906;2023-04-03T04:52:43;97454.97;;;-0.01;79.42
77207;BME280;66190;50.708;7.906;2023-04-03T04:55:08;97459.66;;;-0.05;79.69
77207;BME280;66190;50.708;7.906;2023-04-03T04:57:34;97452.56;;;-0.04;79.59
77207;BME280;66190;50.708;7.906;2023-04-03T05:00:00;97462.53;;;-0.08;79.13
77207;BME280;66190;50.708;7.906;2023-04-03T05:02:25;97462.66;;;-0.09;79.25
77207;BME280;66190;50.708;7.906;2023-04-03T05:04:50;97466.97;;;-0.08;78.91
77207;BME280;66190;50.708;7.906;2023-04-03T05:07:17;97465.59;;;-0.14;79.30
77207;BME280;66190;50.708;7.906;2023-04-03T05:09:42;97466.34;;;-0.12;79.16
77207;BME280;66190;50.708;7.906;2023-04-03T05:12:08;97468.97;;;-0.12;79.15
77207;BME280;66190;50.708;7.906;2023-04-03T05:14:33;97470.91;;;-0.14;79.26
77207;BME280;66190;50.708;7.906;2023-04-03T05:16:58;97474.50;;;-0.15;79.14
77207;BME280;66190;50.708;7.906;2023-04-03T05:19:24;97473.50;;;-0.25;79.16
77207;BME280;66190;50.708;7.906;2023-04-03T05:21:49;97476.75;;;-0.21;79.12
77207;BME280;66190;50.708;7.906;2023-04-03T05:24:15;97473.78;;;-0.17;79.59
77207;BME280;66190;50.708;7.906;2023-04-03T05:26:41;97487.84;;;-0.16;79.10
77207;BME280;66190;50.708;7.906;2023-04-03T05:29:07;97478.09;;;-0.16;79.08
77207;BME280;66190;50.708;7.906;2023-04-03T05:31:33;97480.41;;;-0.11;79.27
77207;BME280;66190;50.708;7.906;2023-04-03T05:33:58;97481.16;;;-0.09;79.67
77207;BME280;66190;50.708;7.906;2023-04-03T05:36:24;97489.28;;;-0.12;79.25
77207;BME280;66190;50.708;7.906;2023-04-03T05:38:50;97485.09;;;-0.15;79.84
77207;BME280;66190;50.708;7.906;2023-04-03T05:41:16;97484.25;;;-0.15;80.15
77207;BME280;66190;50.708;7.906;2023-04-03T05:43:41;97495.44;;;-0.12;79.46
77207;BME280;66190;50.708;7.906;2023-04-03T05:46:10;97492.56;;;-0.09;79.37
77207;BME280;66190;50.708;7.906;2023-04-03T05:48:48;97500.41;;;-0.07;79.81
77207;BME280;66190;50.708;7.906;2023-04-03T05:51:23;97493.91;;;-0.03;79.30
77207;BME280;66190;50.708;7.906;2023-04-03T05:57:09;97506.59;;;0.05;79.08
77207;BME280;66190;50.708;7.906;2023-04-03T05:59:34;97506.94;;;0.00;79.22
77207;BME280;66190;50.708;7.906;2023-04-03T06:02:00;97510.28;;;0.02;79.10
77207;BME280;66190;50.708;7.906;2023-04-03T06:04:26;97509.63;;;0.11;79.38
77207;BME280;66190;50.708;7.906;2023-04-03T06:06:56;97509.38;;;0.14;79.36
77207;BME280;66190;50.708;7.906;2023-04-03T06:09:25;97511.81;;;0.17;79.30
77207;BME280;66190;50.708;7.906;2023-04-03T06:11:52;97513.88;;;0.25;79.20
77207;BME280;66190;50.708;7.906;2023-04-03T06:14:18;97511.59;;;0.20;79.08
77207;BME280;66190;50.708;7.906;2023-04-03T06:16:43;97510.41;;;0.24;79.35
77207;BME280;66190;50.708;7.906;2023-04-03T06:19:10;97513.78;;;0.26;79.60
77207;BME280;66190;50.708;7.906;2023-04-03T06:21:36;97517.66;;;0.33;79.37
77207;BME280;66190;50.708;7.906;2023-04-03T06:24:05;97509.94;;;0.30;79.38
77207;BME280;66190;50.708;7.906;2023-04-03T06:26:31;97524.88;;;0.31;78.98
77207;BME280;66190;50.708;7.906;2023-04-03T06:28:58;97519.13;;;0.37;79.27
77207;BME280;66190;50.708;7.906;2023-04-03T06:31:23;97518.38;;;0.35;79.06
77207;BME280;66190;50.708;7.906;2023-04-03T06:33:49;97516.97;;;0.42;79.19
77207;BME280;66190;50.708;7.906;2023-04-03T06:36:15;97517.16;;;0.52;78.82
77207;BME280;66190;50.708;7.906;2023-04-03T06:38:45;97523.50;;;0.49;79.08
77207;BME280;66190;50.708;7.906;2023-04-03T06:41:11;97519.56;;;0.55;78.66
77207;BME280;66190;50.708;7.906;2023-04-03T06:43:37;97528.38;;;0.66;78.48
77207;BME280;66190;50.708;7.906;2023-04-03T06:46:02;97531.00;;;0.66;77.96
77207;BME280;66190;50.708;7.906;2023-04-03T06:48:28;97530.41;;;0.63;78.22
77207;BME280;66190;50.708;7.906;2023-04-03T06:50:53;97539.31;;;0.62;78.08
77207;BME280;66190;50.708;7.906;2023-04-03T06:53:18;97544.66;;;0.73;78.53
77207;BME280;66190;50.708;7.906;2023-04-03T06:55:44;97530.94;;;0.79;78.47
77207;BME280;66190;50.708;7.906;2023-04-03T06:58:10;97541.78;;;0.76;77.83
77207;BME280;66190;50.708;7.906;2023-04-03T07:00:35;97548.53;;;0.80;77.89
77207;BME280;66190;50.708;7.906;2023-04-03T07:03:01;97540.69;;;0.78;78.24
77207;BME280;66190;50.708;7.906;2023-04-03T07:05:26;97545.16;;;0.78;78.27
77207;BME280;66190;50.708;7.906;2023-04-03T07:07:52;97551.31;;;0.89;78.28
77207;BME280;66190;50.708;7.906;2023-04-03T07:10:18;97554.69;;;0.91;77.42
77207;BME280;66190;50.708;7.906;2023-04-03T07:12:44;97561.06;;;0.89;77.52
77207;BME280;66190;50.708;7.906;2023-04-03T07:15:10;97562.66;;;0.91;77.76
77207;BME280;66190;50.708;7.906;2023-04-03T07:17:38;97571.19;;;0.95;77.91
77207;BME280;66190;50.708;7.906;2023-04-03T07:20:03;97566.50;;;0.98;77.56
77207;BME280;66190;50.708;7.906;2023-04-03T07:22:30;97561.47;;;0.95;77.44
77207;BME280;66190;50.708;7.906;2023-04-03T07:24:55;97558.94;;;1.05;77.59
77207;BME280;66190;50.708;7.906;2023-04-03T07:27:21;97567.25;;;1.11;77.56
77207;BME280;66190;50.708;7.906;2023-04-03T07:29:46;97567.97;;;1.13;77.61
77207;BME280;66190;50.708;7.906;2023-04-03T07:32:14;97578.94;;;1.20;77.44
77207;BME280;66190;50.708;7.906;2023-04-03T07:34:40;97578.34;;;1.16;77.40
77207;BME280;66190;50.708;7.906;2023-04-03T07:37:05;97574.03;;;1.27;77.49
77207;BME280;66190;50.708;7.906;2023-04-03T07:39:32;97579.50;;;1.47;78.68
77207;BME280;66190;50.708;7.906;2023-04-03T07:41:57;97578.66;;;1.58;77.99
77207;BME280;66190;50.708;7.906;2023-04-03T07:44:23;97588.28;;;1.70;77.04
77207;BME280;66190;50.708;7.906;2023-04-03T07:46:48;97584.31;;;1.64;75.43
77207;BME280;66190;50.708;7.906;2023-04-03T07:49:16;97587.44;;;1.69;75.28
77207;BME280;66190;50.708;7.906;2023-04-03T07:51:43;97590.22;;;1.68;75.54
77207;BME280;66190;50.708;7.906;2023-04-03T07:54:08;97589.03;;;1.72;75.76
77207;BME280;66190;50.708;7.906;2023-04-03T07:56:34;97586.84;;;1.66;74.81
77207;BME280;66190;50.708;7.906;2023-04-03T07:58:59;97594.66;;;1.45;74.54
77207;BME280;66190;50.708;7.906;2023-04-03T08:01:25;97591.78;;;1.37;74.77
77207;BME280;66190;50.708;7.906;2023-04-03T08:03:50;97589.38;;;1.56;74.57
77207;BME280;66190;50.708;7.906;2023-04-03T08:06:16;97598.16;;;1.57;75.30
77207;BME280;66190;50.708;7.906;2023-04-03T08:08:42;97592.13;;;1.55;75.91
77207;BME280;66190;50.708;7.906;2023-04-03T08:11:07;97591.03;;;1.46;74.96
77207;BME280;66190;50.708;7.906;2023-04-03T08:13:33;97595.97;;;1.40;75.62
77207;BME280;66190;50.708;7.906;2023-04-03T08:16:10;97588.50;;;1.34;76.07
77207;BME280;66190;50.708;7.906;2023-04-03T08:18:37;97589.13;;;1.59;77.09
77207;BME280;66190;50.708;7.906;2023-04-03T08:21:06;97594.56;;;1.80;75.66
77207;BME280;66190;50.708;7.906;2023-04-03T08:23:32;97591.06;;;1.79;74.10
77207;BME280;66190;50.708;7.906;2023-04-03T08:25:57;97586.25;;;1.73;73.35
77207;BME280;66190;50.708;7.906;2023-04-03T08:28:22;97602.75;;;1.88;74.71
77207;BME280;66190;50.708;7.906;2023-04-03T08:30:48;97594.69;;;1.89;73.69
77207;BME280;66190;50.708;7.906;2023-04-03T08:33:13;97604.31;;;2.01;73.11
77207;BME280;66190;50.708;7.906;2023-04-03T08:35:42;97588.81;;;2.28;73.94
77207;BME280;66190;50.708;7.906;2023-04-03T08:38:08;97593.47;;;2.47;72.79
77207;BME280;66190;50.708;7.906;2023-04-03T08:40:34;97585.03;;;2.53;72.47
77207;BME280;66190;50.708;7.906;2023-04-03T08:43:19;97580.16;;;2.58;72.37
77207;BME280;66190;50.708;7.906;2023-04-03T08:45:52;97589.69;;;2.61;72.28
77207;BME280;66190;50.708;7.906;2023-04-03T08:48:19;97588.28;;;2.57;70.29
77207;BME280;66190;50.708;7.906;2023-04-03T08:50:50;97592.53;;;2.48;70.15
77207;BME280;66190;50.708;7.906;2023-04-03T08:53:21;97598.78;;;2.47;71.83
77207;BME280;66190;50.708;7.906;2023-04-03T08:55:53;97596.31;;;2.66;71.17
77207;BME280;66190;50.708;7.906;2023-04-03T08:58:29;97607.06;;;2.65;69.93
77207;BME280;66190;50.708;7.906;2023-04-03T09:00:59;97594.72;;;2.75;70.06
77207;BME280;66190;50.708;7.906;2023-04-03T09:03:30;97604.13;;;2.79;70.33
77207;BME280;66190;50.708;7.906;2023-04-03T09:14:38;97602.03;;;3.14;66.95
77207;BME280;66190;50.708;7.906;2023-04-03T09:17:21;97612.84;;;3.22;69.64
77207;BME280;66190;50.708;7.906;2023-04-03T09:20:25;97606.63;;;3.32;70.45
77207;BME280;66190;50.708;7.906;2023-04-03T09:22:54;97611.31;;;3.40;69.64
77207;BME280;66190;50.708;7.906;2023-04-03T09:25:33;97616.75;;;3.38;67.00
77207;BME280;66190;50.708;7.906;2023-04-03T09:28:01;97615.00;;;3.48;68.23
77207;BME280;66190;50.708;7.906;2023-04-03T09:30:29;97615.34;;;3.34;66.49
77207;BME280;66190;50.708;7.906;2023-04-03T09:32:56;97608.13;;;3.46;65.99
77207;BME280;66190;50.708;7.906;2023-04-03T09:35:24;97605.53;;;3.56;62.85
77207;BME280;66190;50.708;7.906;2023-04-03T09:37:52;97607.16;;;3.77;63.68
77207;BME280;66190;50.708;7.906;2023-04-03T09:40:34;97600.31;;;3.75;60.92
77207;BME280;66190;50.708;7.906;2023-04-03T09:45:52;97603.81;;;3.75;62.73
77207;BME280;66190;50.708;7.906;2023-04-03T09:48:20;97596.78;;;3.74;62.53
77207;BME280;66190;50.708;7.906;2023-04-03T09:50:56;97593.78;;;3.88;63.02
77207;BME280;66190;50.708;7.906;2023-04-03T09:53:44;97594.16;;;4.14;61.92
77207;BME280;66190;50.708;7.906;2023-04-03T09:58:43;97601.41;;;4.12;63.18
77207;BME280;66190;50.708;7.906;2023-04-03T10:01:57;97600.41;;;4.03;62.52
77207;BME280;66190;50.708;7.906;2023-04-03T10:04:23;97600.25;;;3.95;61.28
77207;BME280;66190;50.708;7.906;2023-04-03T10:06:52;97598.81;;;3.91;60.70
77207;BME280;66190;50.708;7.906;2023-04-03T10:09:19;97597.00;;;4.31;61.42
77207;BME280;66190;50.708;7.906;2023-04-03T10:12:03;97599.72;;;4.50;64.16
77207;BME280;66190;50.708;7.906;2023-04-03T10:14:34;97594.94;;;4.54;59.48
77207;BME280;66190;50.708;7.906;2023-04-03T10:17:18;97592.03;;;4.67;60.10
77207;BME280;66190;50.708;7.906;2023-04-03T10:25:41;97584.03;;;4.95;57.98
77207;BME280;66190;50.708;7.906;2023-04-03T10:30:54;97590.50;;;5.02;55.81
77207;BME280;66190;50.708;7.906;2023-04-03T10:36:36;97583.91;;;5.06;52.58
77207;BME280;66190;50.708;7.906;2023-04-03T10:47:32;97572.13;;;4.90;56.17
77207;BME280;66190;50.708;7.906;2023-04-03T10:50:30;97572.94;;;5.09;54.25
77207;BME280;66190;50.708;7.906;2023-04-03T10:58:32;97574.59;;;5.39;56.00
77207;BME280;66190;50.708;7.906;2023-04-03T11:01:05;97565.72;;;5.57;57.19
77207;BME280;66190;50.708;7.906;2023-04-03T11:03:44;97563.03;;;5.57;56.43
77207;BME280;66190;50.708;7.906;2023-04-03T11:06:13;97552.88;;;5.70;56.46
77207;BME280;66190;50.708;7.906;2023-04-03T11:09:02;97567.34;;;5.87;56.88
77207;BME280;66190;50.708;7.906;2023-04-03T11:11:32;97551.50;;;6.03;57.05
77207;BME280;66190;50.708;7.906;2023-04-03T11:22:26;97559.03;;;6.17;53.23
77207;BME280;66190;50.708;7.906;2023-04-03T11:27:59;97549.84;;;6.02;49.97
77207;BME280;66190;50.708;7.906;2023-04-03T11:30:33;97550.50;;;6.31;53.03
77207;BME280;66190;50.708;7.906;2023-04-03T11:33:07;97552.44;;;6.12;51.68
77207;BME280;66190;50.708;7.906;2023-04-03T11:35:36;97549.09;;;6.10;51.16
77207;BME280;66190;50.708;7.906;2023-04-03T11:38:04;97537.25;;;6.12;52.88
77207;BME280;66190;50.708;7.906;2023-04-03T11:40:35;97535.72;;;6.37;54.06
77207;BME280;66190;50.708;7.906;2023-04-03T11:43:21;97531.44;;;6.44;53.88
77207;BME280;66190;50.708;7.906;2023-04-03T11:45:59;97528.94;;;6.60;53.59
77207;BME280;66190;50.708;7.906;2023-04-03T11:53:46;97530.81;;;6.32;50.89
77207;BME280;66190;50.708;7.906;2023-04-03T12:01:47;97530.81;;;6.50;52.28
77207;BME280;66190;50.708;7.906;2023-04-03T12:04:15;97519.94;;;6.61;50.84
77207;BME280;66190;50.708;7.906;2023-04-03T12:10:13;97520.78;;;6.61;50.75
77207;BME280;66190;50.708;7.906;2023-04-03T12:12:40;97513.03;;;6.76;48.61
77207;BME280;66190;50.708;7.906;2023-04-03T12:17:48;97515.44;;;6.61;48.32
77207;BME280;66190;50.708;7.906;2023-04-03T12:28:56;97500.22;;;6.62;49.50
77207;BME280;66190;50.708;7.906;2023-04-03T12:31:37;97498.91;;;6.83;48.25
77207;BME280;66190;50.708;7.906;2023-04-03T12:37:03;97504.31;;;6.91;49.42
77207;BME280;66190;50.708;7.906;2023-04-03T12:42:22;97494.81;;;7.15;51.86
77207;BME280;66190;50.708;7.906;2023-04-03T12:47:56;97478.75;;;7.15;49.31
77207;BME280;66190;50.708;7.906;2023-04-03T12:50:30;97481.25;;;7.16;50.87
77207;BME280;66190;50.708;7.906;2023-04-03T12:53:02;97477.09;;;7.14;49.80
77207;BME280;66190;50.708;7.906;2023-04-03T12:55:29;97482.13;;;7.17;50.29
77207;BME280;66190;50.708;7.906;2023-04-03T12:57:55;97472.47;;;7.24;49.59
77207;BME280;66190;50.708;7.906;2023-04-03T13:02:48;97474.81;;;7.27;47.62
77207;BME280;66190;50.708;7.906;2023-04-03T13:05:17;97474.88;;;7.35;46.49
77207;BME280;66190;50.708;7.906;2023-04-03T13:07:43;97453.75;;;7.57;47.30
77207;BME280;66190;50.708;7.906;2023-04-03T13:10:17;97465.78;;;7.53;47.70
77207;BME280;66190;50.708;7.906;2023-04-03T13:12:51;97465.00;;;7.61;47.41
77207;BME280;66190;50.708;7.906;2023-04-03T13:17:45;97461.59;;;7.84;48.46
77207;BME280;66190;50.708;7.906;2023-04-03T13:20:28;97456.94;;;7.94;48.43
77207;BME280;66190;50.708;7.906;2023-04-03T13:23:02;97453.63;;;8.08;47.65
77207;BME280;66190;50.708;7.906;2023-04-03T13:25:33;97457.63;;;8.04;46.26
77207;BME280;66190;50.708;7.906;2023-04-03T13:28:01;97457.28;;;7.99;47.54
77207;BME280;66190;50.708;7.906;2023-04-03T13:30:35;97461.03;;;8.15;49.17
77207;BME280;66190;50.708;7.906;2023-04-03T13:33:04;97456.63;;;8.05;45.42
77207;BME280;66190;50.708;7.906;2023-04-03T13:35:38;97462.84;;;7.64;43.62
77207;BME280;66190;50.708;7.906;2023-04-03T13:38:25;97460.28;;;7.63;44.34
77207;BME280;66190;50.708;7.906;2023-04-03T13:40:56;97456.34;;;7.75;47.26
77207;BME280;66190;50.708;7.906;2023-04-03T13:43:26;97450.50;;;7.71;46.03
77207;BME280;66190;50.708;7.906;2023-04-03T13:45:56;97452.94;;;7.98;48.82
77207;BME280;66190;50.708;7.906;2023-04-03T13:48:23;97442.22;;;8.06;45.91
77207;BME280;66190;50.708;7.906;2023-04-03T13:53:16;97432.56;;;8.22;45.98
77207;BME280;66190;50.708;7.906;2023-04-03T13:58:58;97438.69;;;8.64;43.84
77207;BME280;66190;50.708;7.906;2023-04-03T14:01:25;97440.69;;;8.78;42.08
77207;BME280;66190;50.708;7.906;2023-04-03T14:03:57;97423.25;;;8.90;41.65
77207;BME280;66190;50.708;7.906;2023-04-03T14:06:23;97432.81;;;9.08;47.35
77207;BME280;66190;50.708;7.906;2023-04-03T14:08:49;97427.25;;;9.02;44.10
77207;BME280;66190;50.708;7.906;2023-04-03T14:11:24;97429.13;;;9.01;43.30
77207;BME280;66190;50.708;7.906;2023-04-03T14:13:52;97426.41;;;9.17;42.53
77207;BME280;66190;50.708;7.906;2023-04-03T14:16:21;97413.78;;;9.42;42.43
77207;BME280;66190;50.708;7.906;2023-04-03T14:18:48;97418.56;;;9.63;43.91
77207;BME280;66190;50.708;7.906;2023-04-03T14:21:16;97409.91;;;9.91;42.30
77207;BME280;66190;50.708;7.906;2023-04-03T14:23:42;97404.34;;;10.32;42.27
77207;BME280;66190;50.708;7.906;2023-04-03T14:26:11;97406.31;;;11.49;40.43
77207;BME280;66190;50.708;7.906;2023-04-03T14:28:37;97397.75;;;12.18;34.85
77207;BME280;66190;50.708;7.906;2023-04-03T14:31:05;97384.88;;;13.81;33.13
77207;BME280;66190;50.708;7.906;2023-04-03T14:33:30;97393.53;;;14.64;31.24
77207;BME280;66190;50.708;7.906;2023-04-03T14:36:00;97388.56;;;15.07;30.00
77207;BME280;66190;50.708;7.906;2023-04-03T14:38:29;97385.78;;;15.92;29.09
77207;BME280;66190;50.708;7.906;2023-04-03T14:40:56;97384.88;;;16.11;27.84
77207;BME280;66190;50.708;7.906;2023-04-03T14:43:22;97389.34;;;16.43;27.25
77207;BME280;66190;50.708;7.906;2023-04-03T14:45:49;97388.69;;;16.92;27.09
77207;BME280;66190;50.708;7.906;2023-04-03T14:48:23;97388.13;;;17.08;26.24
77207;BME280;66190;50.708;7.906;2023-04-03T14:50:50;97383.63;;;17.20;26.21
77207;BME280;66190;50.708;7.906;2023-04-03T14:53:18;97370.25;;;17.19;24.93
77207;BME280;66190;50.708;7.906;2023-04-03T14:55:48;97385.97;;;17.41;25.22
77207;BME280;66190;50.708;7.906;2023-04-03T14:58:15;97365.72;;;18.34;24.10